createdAt,value
2024-02-04T00:00:31.015Z,9.457245
2024-02-04T00:01:30.943Z,9.457396
2024-02-04T00:02:30.858Z,9.457321
2024-02-04T00:03:30.938Z,9.457345
2024-02-04T00:04:30.951Z,9.457440
2024-02-04T00:05:30.835Z,9.457500
2024-02-04T00:06:30.910Z,9.457365
2024-02-04T00:07:30.858Z,9.457262
2024-02-04T00:08:31.493Z,9.457116
2024-02-04T00:09:31.757Z,9.457072
2024-02-04T00:10:30.786Z,9.457130
2024-02-04T00:11:30.781Z,9.457175
2024-02-04T00:12:30.772Z,9.457249
2024-02-04T00:13:30.772Z,9.457159
2024-02-04T00:14:30.760Z,9.457217
2024-02-04T00:15:30.799Z,9.457265
2024-02-04T00:16:30.733Z,9.457301
2024-02-04T00:17:30.789Z,9.457251
2024-02-04T00:18:30.805Z,9.457265
2024-02-04T00:19:30.740Z,9.457206
2024-02-04T00:20:30.683Z,9.457247
2024-02-04T00:21:30.712Z,9.457253
2024-02-04T00:22:30.681Z,9.457403
2024-02-04T00:23:30.682Z,9.457517
2024-02-04T00:24:30.717Z,9.457288
2024-02-04T00:25:30.667Z,9.457240
2024-02-04T00:26:30.632Z,9.457207
2024-02-04T00:27:31.140Z,9.457203
2024-02-04T00:28:31.604Z,9.457211
2024-02-04T00:29:30.606Z,9.457072
2024-02-04T00:30:30.643Z,9.456910
2024-02-04T00:31:30.578Z,9.456978
2024-02-04T00:32:30.633Z,9.456939
2024-02-04T00:33:30.690Z,9.456947
2024-02-04T00:34:30.584Z,9.457017
2024-02-04T00:35:30.540Z,9.457036
2024-02-04T00:36:30.592Z,9.457170
2024-02-04T00:37:30.550Z,9.457232
2024-02-04T00:38:30.515Z,9.456928
2024-02-04T00:39:30.526Z,9.456737
2024-02-04T00:40:30.533Z,9.456717
2024-02-04T00:41:30.519Z,9.457222
2024-02-04T00:42:30.492Z,9.457456
2024-02-04T00:43:30.462Z,9.457205
2024-02-04T00:44:30.456Z,9.457181
2024-02-04T00:45:30.446Z,9.457196
2024-02-04T00:46:30.452Z,9.457291
2024-02-04T00:47:30.427Z,9.457346
2024-02-04T00:48:30.674Z,9.457304
2024-02-04T00:49:30.583Z,9.457214
2024-02-04T00:50:30.397Z,9.457150
2024-02-04T00:51:30.449Z,9.457038
2024-02-04T00:52:30.381Z,9.457153
2024-02-04T00:53:30.364Z,9.457121
2024-02-04T00:54:30.384Z,9.457181
2024-02-04T00:55:30.356Z,9.457200
2024-02-04T00:56:30.393Z,9.457399
2024-02-04T00:57:30.387Z,9.457151
2024-02-04T00:58:30.320Z,9.457206
2024-02-04T00:59:30.304Z,9.457133
2024-02-04T01:00:30.352Z,9.457179
2024-02-04T01:01:30.395Z,9.457207
2024-02-04T01:02:30.275Z,9.457123
2024-02-04T01:03:30.316Z,9.457250
2024-02-04T01:04:30.418Z,9.457190
2024-02-04T01:05:30.309Z,9.457233
2024-02-04T01:06:32.774Z,9.457260
2024-02-04T01:07:30.246Z,9.457222
2024-02-04T01:08:30.224Z,9.457224
2024-02-04T01:09:30.946Z,9.457217
2024-02-04T01:10:30.223Z,9.457162
2024-02-04T01:11:30.197Z,9.457219
2024-02-04T01:12:30.205Z,9.457217
2024-02-04T01:13:30.167Z,9.457259
2024-02-04T01:14:30.214Z,9.457221
2024-02-04T01:15:30.206Z,9.457228
2024-02-04T01:16:30.144Z,9.457269
2024-02-04T01:17:30.154Z,9.457218
2024-02-04T01:18:30.220Z,9.457241
2024-02-04T01:19:30.240Z,9.457318
2024-02-04T01:20:30.114Z,9.457230
2024-02-04T01:21:30.176Z,9.457130
2024-02-04T01:22:30.084Z,9.457168
2024-02-04T01:23:30.100Z,9.457255
2024-02-04T01:24:30.169Z,9.457244
2024-02-04T01:25:30.091Z,9.457170
2024-02-04T01:26:30.050Z,9.457107
2024-02-04T01:27:30.126Z,9.457157
2024-02-04T01:28:30.065Z,9.457242
2024-02-04T01:29:30.023Z,9.457298
2024-02-04T01:30:30.101Z,9.457060
2024-02-04T01:31:30.006Z,9.457088
2024-02-04T01:32:30.004Z,9.457137
2024-02-04T01:33:30.080Z,9.457268
2024-02-04T01:34:30.054Z,9.457193
2024-02-04T01:35:29.970Z,9.457206
2024-02-04T01:36:29.961Z,9.457484
2024-02-04T01:37:29.965Z,9.457256
2024-02-04T01:38:29.944Z,9.457059
2024-02-04T01:39:29.947Z,9.457115
2024-02-04T01:40:29.927Z,9.457201
2024-02-04T01:41:29.943Z,9.457179
2024-02-04T01:42:29.930Z,9.457124
2024-02-04T01:43:29.892Z,9.457731
2024-02-04T01:44:29.922Z,9.457380
2024-02-04T01:45:29.857Z,9.457363
2024-02-04T01:46:30.852Z,9.457125
2024-02-04T01:47:29.870Z,9.457232
2024-02-04T01:48:29.939Z,9.457138
2024-02-04T01:49:29.906Z,9.457217
2024-02-04T01:50:29.846Z,9.457287
2024-02-04T01:51:29.849Z,9.457197
2024-02-04T01:52:29.811Z,9.457202
2024-02-04T01:53:29.800Z,9.457277
2024-02-04T01:54:29.784Z,9.457255
2024-02-04T01:55:29.760Z,9.457176
2024-02-04T01:56:29.766Z,9.457166
2024-02-04T01:57:29.756Z,9.457260
2024-02-04T01:58:29.744Z,9.457108
2024-02-04T01:59:29.731Z,9.457298
2024-02-04T02:00:29.732Z,9.457244
2024-02-04T02:01:29.871Z,9.457097
2024-02-04T02:02:29.696Z,9.457238
2024-02-04T02:03:29.769Z,9.457197
2024-02-04T02:04:29.812Z,9.457237
2024-02-04T02:05:29.687Z,9.457221
2024-02-04T02:06:29.713Z,9.457179
2024-02-04T02:07:29.757Z,9.457263
2024-02-04T02:08:29.662Z,9.457298
2024-02-04T02:09:29.675Z,9.457100
2024-02-04T02:10:29.685Z,9.457067
2024-02-04T02:11:29.630Z,9.456996
2024-02-04T02:12:29.662Z,9.457277
2024-02-04T02:13:29.588Z,9.457255
2024-02-04T02:14:29.624Z,9.457273
2024-02-04T02:15:29.609Z,9.457288
2024-02-04T02:16:29.562Z,9.457303
2024-02-04T02:17:29.613Z,9.457205
2024-02-04T02:18:29.666Z,9.457215
2024-02-04T02:19:29.630Z,9.457303
2024-02-04T02:20:29.549Z,9.457272
2024-02-04T02:21:29.557Z,9.457102
2024-02-04T02:22:30.501Z,9.457302
2024-02-04T02:23:29.499Z,9.457175
2024-02-04T02:24:29.593Z,9.457211
2024-02-04T02:25:29.466Z,9.457256
2024-02-04T02:26:29.467Z,9.457230
2024-02-04T02:27:29.503Z,9.457092
2024-02-04T02:28:29.447Z,9.457343
2024-02-04T02:29:29.442Z,9.457192
2024-02-04T02:30:29.447Z,9.457241
2024-02-04T02:31:35.694Z,9.457208
2024-02-04T02:32:31.411Z,9.457250
2024-02-04T02:33:29.475Z,9.457256
2024-02-04T02:34:37.587Z,9.457231
2024-02-04T02:35:31.454Z,9.457213
2024-02-04T02:36:29.383Z,9.457438
2024-02-04T02:37:29.367Z,9.457370
2024-02-04T02:38:29.365Z,9.457301
2024-02-04T02:39:29.344Z,9.457362
2024-02-04T02:40:29.321Z,9.457140
2024-02-04T02:41:29.312Z,9.457088
2024-02-04T02:42:29.352Z,9.457240
2024-02-04T02:43:29.312Z,9.457192
2024-02-04T02:44:29.295Z,9.457169
2024-02-04T02:45:29.314Z,9.457178
2024-02-04T02:46:29.380Z,9.457419
2024-02-04T02:47:29.332Z,9.457269
2024-02-04T02:48:29.430Z,9.457373
2024-02-04T02:49:29.341Z,9.457026
2024-02-04T02:50:29.221Z,9.456991
2024-02-04T02:51:29.225Z,9.457052
2024-02-04T02:52:29.260Z,9.457035
2024-02-04T02:53:29.282Z,9.457233
2024-02-04T02:54:29.209Z,9.457088
2024-02-04T02:55:29.172Z,9.456913
2024-02-04T02:56:29.193Z,9.456974
2024-02-04T02:57:29.215Z,9.456955
2024-02-04T02:58:29.147Z,9.456871
2024-02-04T02:59:29.162Z,9.456882
2024-02-04T03:00:29.234Z,9.457015
2024-02-04T03:01:29.184Z,9.456780
2024-02-04T03:02:29.142Z,9.456699
2024-02-04T03:03:29.197Z,9.456810
2024-02-04T03:04:29.189Z,9.457169
2024-02-04T03:05:29.117Z,9.457288
2024-02-04T03:06:29.141Z,9.457258
2024-02-04T03:07:30.074Z,9.457236
2024-02-04T03:08:29.040Z,9.457267
2024-02-04T03:09:29.034Z,9.457240
2024-02-04T03:10:29.015Z,9.457255
2024-02-04T03:11:29.037Z,9.457252
2024-02-04T03:12:29.011Z,9.457324
2024-02-04T03:13:28.987Z,9.457295
2024-02-04T03:14:28.985Z,9.457301
2024-02-04T03:15:28.986Z,9.457286
2024-02-04T03:16:28.966Z,9.457281
2024-02-04T03:17:28.984Z,9.457332
2024-02-04T03:18:29.010Z,9.457270
2024-02-04T03:19:28.980Z,9.457262
2024-02-04T03:20:28.940Z,9.457317
2024-02-04T03:21:28.946Z,9.457274
2024-02-04T03:22:28.913Z,9.457326
2024-02-04T03:23:28.888Z,9.457278
2024-02-04T03:24:28.926Z,9.457317
2024-02-04T03:25:28.880Z,9.457286
2024-02-04T03:26:28.866Z,9.457298
2024-02-04T03:27:28.911Z,9.457278
2024-02-04T03:28:28.841Z,9.457376
2024-02-04T03:29:28.835Z,9.457216
2024-02-04T03:30:28.869Z,9.457188
2024-02-04T03:31:28.809Z,9.457095
2024-02-04T03:32:28.819Z,9.457196
2024-02-04T03:33:28.894Z,9.457245
2024-02-04T03:34:28.877Z,9.456885
2024-02-04T03:35:28.910Z,9.457090
2024-02-04T03:36:28.796Z,9.457197
2024-02-04T03:37:28.764Z,9.457320
2024-02-04T03:38:28.753Z,9.457239
2024-02-04T03:39:28.790Z,9.457260
2024-02-04T03:40:28.835Z,9.457309
2024-02-04T03:41:28.730Z,9.457219
2024-02-04T03:42:28.811Z,9.457174
2024-02-04T03:43:28.703Z,9.457165
2024-02-04T03:44:28.711Z,9.457105
2024-02-04T03:45:28.717Z,9.457032
2024-02-04T03:46:28.668Z,9.457272
2024-02-04T03:47:28.692Z,9.457302
2024-02-04T03:48:28.812Z,9.457108
2024-02-04T03:49:28.874Z,9.457055
2024-02-04T03:50:28.636Z,9.457273
2024-02-04T03:51:28.691Z,9.457193
2024-02-04T03:52:28.626Z,9.457175
2024-02-04T03:53:28.623Z,9.457297
2024-02-04T03:54:28.627Z,9.457279
2024-02-04T03:55:28.581Z,9.457266
2024-02-04T03:56:29.574Z,9.457346
2024-02-04T03:57:28.595Z,9.457211
2024-02-04T03:58:28.571Z,9.457241
2024-02-04T03:59:28.563Z,9.457076
2024-02-04T04:00:28.629Z,9.456976
2024-02-04T04:01:28.583Z,9.457218
2024-02-04T04:02:28.510Z,9.457195
2024-02-04T04:03:28.587Z,9.457143
2024-02-04T04:04:28.753Z,9.457097
2024-02-04T04:05:28.606Z,9.457107
2024-02-04T04:06:28.595Z,9.457113
2024-02-04T04:07:28.559Z,9.457047
2024-02-04T04:08:28.474Z,9.457081
2024-02-04T04:09:28.466Z,9.457231
2024-02-04T04:10:28.440Z,9.457056
2024-02-04T04:11:28.448Z,9.457116
2024-02-04T04:12:28.493Z,9.457201
2024-02-04T04:13:28.404Z,9.457231
2024-02-04T04:14:28.392Z,9.457281
2024-02-04T04:15:28.447Z,9.457176
2024-02-04T04:16:28.394Z,9.457397
2024-02-04T04:17:28.394Z,9.457127
2024-02-04T04:18:28.441Z,9.457220
2024-02-04T04:19:28.420Z,9.457344
2024-02-04T04:20:28.337Z,9.457320
2024-02-04T04:21:28.385Z,9.457241
2024-02-04T04:22:28.369Z,9.457221
2024-02-04T04:23:28.309Z,9.457461
2024-02-04T04:24:28.366Z,9.457377
2024-02-04T04:25:28.299Z,9.457291
2024-02-04T04:26:28.385Z,9.457458
2024-02-04T04:27:28.366Z,9.457295
2024-02-04T04:28:28.259Z,9.457317
2024-02-04T04:29:28.260Z,9.457279
2024-02-04T04:30:28.334Z,9.457308
2024-02-04T04:31:28.270Z,9.457207
2024-02-04T04:32:28.319Z,9.457214
2024-02-04T04:33:28.285Z,9.457340
2024-02-04T04:34:28.269Z,9.457298
2024-02-04T04:35:28.210Z,9.457355
2024-02-04T04:36:28.238Z,9.457243
2024-02-04T04:37:28.181Z,9.457376
2024-02-04T04:38:28.191Z,9.457486
2024-02-04T04:39:28.251Z,9.457456
2024-02-04T04:40:28.197Z,9.457476
2024-02-04T04:41:28.133Z,9.457030
2024-02-04T04:42:28.158Z,9.457104
2024-02-04T04:43:28.126Z,9.457197
2024-02-04T04:44:28.101Z,9.457102
2024-02-04T04:45:28.180Z,9.457335
2024-02-04T04:46:28.084Z,9.457414
2024-02-04T04:47:28.076Z,9.457538
2024-02-04T04:48:28.163Z,9.457238
2024-02-04T04:49:28.091Z,9.457186
2024-02-04T04:50:28.063Z,9.457244
2024-02-04T04:51:28.049Z,9.457249
2024-02-04T04:52:28.037Z,9.457290
2024-02-04T04:53:28.041Z,9.457345
2024-02-04T04:54:28.069Z,9.457361
2024-02-04T04:55:28.002Z,9.457438
2024-02-04T04:56:27.994Z,9.457450
2024-02-04T04:57:28.005Z,9.457440
2024-02-04T04:58:27.975Z,9.457313
2024-02-04T04:59:53.891Z,9.457303
2024-02-04T05:00:28.036Z,9.457319
2024-02-04T05:01:28.038Z,9.457267
2024-02-04T05:02:27.935Z,9.457263
2024-02-04T05:03:28.012Z,9.457357
2024-02-04T05:04:28.038Z,9.457149
2024-02-04T05:05:27.896Z,9.457254
2024-02-04T05:06:27.959Z,9.457207
2024-02-04T05:07:28.018Z,9.457277
2024-02-04T05:08:27.921Z,9.457292
2024-02-04T05:09:27.861Z,9.457225
2024-02-04T05:10:27.840Z,9.457223
2024-02-04T05:11:27.852Z,9.457132
2024-02-04T05:12:27.848Z,9.457139
2024-02-04T05:13:27.834Z,9.457364
2024-02-04T05:14:27.817Z,9.457349
2024-02-04T05:15:27.824Z,9.457180
2024-02-04T05:16:27.791Z,9.457204
2024-02-04T05:17:27.857Z,9.457209
2024-02-04T05:18:27.948Z,9.457311
2024-02-04T05:19:27.909Z,9.457269
2024-02-04T05:20:27.752Z,9.457252
2024-02-04T05:21:27.762Z,9.457277
2024-02-04T05:22:27.752Z,9.457165
2024-02-04T05:23:27.735Z,9.457199
2024-02-04T05:24:27.722Z,9.457205
2024-02-04T05:25:27.705Z,9.457106
2024-02-04T05:26:27.705Z,9.457154
2024-02-04T05:27:27.873Z,9.457118
2024-02-04T05:28:27.716Z,9.457228
2024-02-04T05:29:27.711Z,9.457232
2024-02-04T05:30:27.723Z,9.457135
2024-02-04T05:31:27.677Z,9.457214
2024-02-04T05:32:27.679Z,9.457219
2024-02-04T05:33:27.749Z,9.457263
2024-02-04T05:34:27.878Z,9.457267
2024-02-04T05:35:27.609Z,9.457273
2024-02-04T05:36:27.730Z,9.457227
2024-02-04T05:37:27.582Z,9.457193
2024-02-04T05:38:27.580Z,9.457174
2024-02-04T05:39:27.620Z,9.457200
2024-02-04T05:40:27.575Z,9.457205
2024-02-04T05:41:27.563Z,9.457206
2024-02-04T05:42:27.558Z,9.457242
2024-02-04T05:43:27.519Z,9.457262
2024-02-04T05:44:27.523Z,9.457183
2024-02-04T05:45:27.627Z,9.457177
2024-02-04T05:46:27.587Z,9.457185
2024-02-04T05:47:27.562Z,9.457147
2024-02-04T05:48:27.690Z,9.457160
2024-02-04T05:49:27.543Z,9.457230
2024-02-04T05:50:27.607Z,9.457199
2024-02-04T05:51:27.483Z,9.457374
2024-02-04T05:52:27.466Z,9.457322
2024-02-04T05:53:27.448Z,9.457129
2024-02-04T05:54:27.469Z,9.457121
2024-02-04T05:55:27.429Z,9.457211
2024-02-04T05:56:27.406Z,9.457284
2024-02-04T05:57:27.414Z,9.457233
2024-02-04T05:58:27.376Z,9.457222
2024-02-04T05:59:27.412Z,9.457197
2024-02-04T06:00:27.375Z,9.457150
2024-02-04T06:01:27.337Z,9.457251
2024-02-04T06:02:28.440Z,9.457165
2024-02-04T06:03:28.548Z,9.457205
2024-02-04T06:04:27.437Z,9.457212
2024-02-04T06:05:27.329Z,9.457103
2024-02-04T06:06:27.481Z,9.457176
2024-02-04T06:07:27.332Z,9.457284
2024-02-04T06:08:27.283Z,9.457346
2024-02-04T06:09:28.377Z,9.457294
2024-02-04T06:10:28.072Z,9.457334
2024-02-04T06:11:27.248Z,9.457312
2024-02-04T06:12:27.261Z,9.457201
2024-02-04T06:13:27.238Z,9.457111
2024-02-04T06:14:27.210Z,9.457051
2024-02-04T06:15:27.288Z,9.456998
2024-02-04T06:16:27.217Z,9.457002
2024-02-04T06:17:27.213Z,9.457265
2024-02-04T06:18:27.298Z,9.457173
2024-02-04T06:19:27.229Z,9.457093
2024-02-04T06:20:27.190Z,9.457017
2024-02-04T06:21:27.286Z,9.456921
2024-02-04T06:22:27.149Z,9.456966
2024-02-04T06:23:27.153Z,9.457088
2024-02-04T06:24:27.118Z,9.457186
2024-02-04T06:25:27.154Z,9.457068
2024-02-04T06:26:27.092Z,9.457157
2024-02-04T06:27:27.259Z,9.457070
2024-02-04T06:28:27.124Z,9.457039
2024-02-04T06:29:27.064Z,9.457154
2024-02-04T06:30:27.099Z,9.457016
2024-02-04T06:31:27.072Z,9.457068
2024-02-04T06:32:27.079Z,9.457161
2024-02-04T06:33:27.316Z,9.457204
2024-02-04T06:34:27.151Z,9.457101
2024-02-04T06:35:27.030Z,9.457144
2024-02-04T06:36:27.085Z,9.457165
2024-02-04T06:37:27.086Z,9.457079
2024-02-04T06:38:26.983Z,9.457123
2024-02-04T06:39:26.996Z,9.457096
2024-02-04T06:40:26.990Z,9.457298
2024-02-04T06:41:26.966Z,9.457280
2024-02-04T06:42:26.993Z,9.457318
2024-02-04T06:43:26.942Z,9.457170
2024-02-04T06:44:26.932Z,9.457183
2024-02-04T06:45:26.929Z,9.457117
2024-02-04T06:46:26.931Z,9.457006
2024-02-04T06:47:26.922Z,9.457073
2024-02-04T06:48:26.948Z,9.456924
2024-02-04T06:49:26.966Z,9.456942
2024-02-04T06:50:26.927Z,9.457193
2024-02-04T06:51:27.039Z,9.457243
2024-02-04T06:52:26.852Z,9.457087
2024-02-04T06:53:26.915Z,9.457204
2024-02-04T06:54:26.875Z,9.457300
2024-02-04T06:55:26.834Z,9.457219
2024-02-04T06:56:26.833Z,9.457121
2024-02-04T06:57:26.830Z,9.457006
2024-02-04T06:58:26.844Z,9.457012
2024-02-04T06:59:26.774Z,9.457314
2024-02-04T07:00:26.921Z,9.457163
2024-02-04T07:01:26.824Z,9.457030
2024-02-04T07:02:26.751Z,9.457018
2024-02-04T07:03:26.866Z,9.457089
2024-02-04T07:04:26.801Z,9.457097
2024-02-04T07:05:26.758Z,9.457035
2024-02-04T07:06:26.834Z,9.457109
2024-02-04T07:07:26.728Z,9.457144
2024-02-04T07:08:26.695Z,9.457245
2024-02-04T07:09:26.700Z,9.457144
2024-02-04T07:10:26.680Z,9.457074
2024-02-04T07:11:26.658Z,9.457182
2024-02-04T07:12:26.676Z,9.457184
2024-02-04T07:13:26.635Z,9.457150
2024-02-04T07:14:26.659Z,9.457128
2024-02-04T07:15:26.657Z,9.457187
2024-02-04T07:16:26.608Z,9.457180
2024-02-04T07:17:26.655Z,9.457228
2024-02-04T07:18:26.677Z,9.457170
2024-02-04T07:19:26.696Z,9.457181
2024-02-04T07:20:26.564Z,9.457223
2024-02-04T07:21:26.582Z,9.457193
2024-02-04T07:22:26.541Z,9.457248
2024-02-04T07:23:26.566Z,9.457180
2024-02-04T07:24:26.567Z,9.457294
2024-02-04T07:25:26.517Z,9.457448
2024-02-04T07:26:26.513Z,9.457333
2024-02-04T07:27:26.513Z,9.457184
2024-02-04T07:28:26.510Z,9.457277
2024-02-04T07:29:26.475Z,9.457108
2024-02-04T07:30:26.516Z,9.457001
2024-02-04T07:31:26.457Z,9.457124
2024-02-04T07:32:26.507Z,9.457002
2024-02-04T07:33:27.399Z,9.457106
2024-02-04T07:34:26.556Z,9.457091
2024-02-04T07:35:26.437Z,9.457045
2024-02-04T07:36:26.480Z,9.457051
2024-02-04T07:37:26.426Z,9.457107
2024-02-04T07:38:26.416Z,9.457064
2024-02-04T07:39:26.449Z,9.457135
2024-02-04T07:40:26.393Z,9.457022
2024-02-04T07:41:26.404Z,9.456968
2024-02-04T07:42:27.422Z,9.456917
2024-02-04T07:43:26.345Z,9.456908
2024-02-04T07:44:26.330Z,9.456913
2024-02-04T07:45:26.342Z,9.456890
2024-02-04T07:46:26.368Z,9.456868
2024-02-04T07:47:26.319Z,9.457099
2024-02-04T07:48:26.471Z,9.457128
2024-02-04T07:49:26.380Z,9.457355
2024-02-04T07:50:26.304Z,9.457309
2024-02-04T07:51:26.369Z,9.457307
2024-02-04T07:52:26.256Z,9.457223
2024-02-04T07:53:26.252Z,9.457150
2024-02-04T07:54:26.310Z,9.457103
2024-02-04T07:55:26.236Z,9.457213
2024-02-04T07:56:26.257Z,9.456982
2024-02-04T07:57:26.219Z,9.457147
2024-02-04T07:58:26.201Z,9.456988
2024-02-04T07:59:26.203Z,9.456886
2024-02-04T08:00:26.251Z,9.456952
2024-02-04T08:01:26.317Z,9.457046
2024-02-04T08:02:26.170Z,9.457138
2024-02-04T08:03:26.239Z,9.457238
2024-02-04T08:04:26.217Z,9.457124
2024-02-04T08:05:26.161Z,9.457305
2024-02-04T08:06:26.162Z,9.457371
2024-02-04T08:07:26.165Z,9.457563
2024-02-04T08:08:26.131Z,9.457564
2024-02-04T08:09:26.116Z,9.457372
2024-02-04T08:10:26.204Z,9.457467
2024-02-04T08:11:26.130Z,9.457191
2024-02-04T08:12:26.122Z,9.457261
2024-02-04T08:13:26.065Z,9.457134
2024-02-04T08:14:26.079Z,9.457015
2024-02-04T08:15:26.131Z,9.457203
2024-02-04T08:16:26.048Z,9.457155
2024-02-04T08:17:26.023Z,9.457117
2024-02-04T08:18:26.053Z,9.457077
2024-02-04T08:19:26.160Z,9.457189
2024-02-04T08:20:25.991Z,9.457088
2024-02-04T08:21:26.011Z,9.457082
2024-02-04T08:22:25.966Z,9.457076
2024-02-04T08:23:25.971Z,9.457150
2024-02-04T08:24:26.085Z,9.457316
2024-02-04T08:25:25.931Z,9.457245
2024-02-04T08:26:25.917Z,9.457285
2024-02-04T08:27:25.956Z,9.457324
2024-02-04T08:28:25.909Z,9.457129
2024-02-04T08:29:25.909Z,9.457248
2024-02-04T08:30:26.032Z,9.457403
2024-02-04T08:31:25.868Z,9.457365
2024-02-04T08:32:25.862Z,9.457277
2024-02-04T08:33:26.026Z,9.457264
2024-02-04T08:34:25.901Z,9.457283
2024-02-04T08:35:25.843Z,9.457269
2024-02-04T08:36:25.894Z,9.457117
2024-02-04T08:37:28.519Z,9.457217
2024-02-04T08:38:25.825Z,9.457285
2024-02-04T08:39:25.823Z,9.457272
2024-02-04T08:40:25.788Z,9.457355
2024-02-04T08:41:25.770Z,9.457365
2024-02-04T08:42:25.800Z,9.457486
2024-02-04T08:43:25.778Z,9.457301
2024-02-04T08:44:32.427Z,9.457320
2024-02-04T08:45:27.762Z,9.457259
2024-02-04T08:46:25.822Z,9.457191
2024-02-04T08:47:25.769Z,9.457146
2024-02-04T08:48:25.735Z,9.457230
2024-02-04T08:49:25.803Z,9.457145
2024-02-04T08:50:25.701Z,9.457230
2024-02-04T08:51:26.550Z,9.457262
2024-02-04T08:52:25.742Z,9.457260
2024-02-04T08:53:25.644Z,9.457298
2024-02-04T08:54:25.682Z,9.457253
2024-02-04T08:55:25.628Z,9.457276
2024-02-04T08:56:25.723Z,9.457335
2024-02-04T08:57:25.668Z,9.457284
2024-02-04T08:58:25.625Z,9.457280
2024-02-04T08:59:25.696Z,9.457260
2024-02-04T09:00:25.616Z,9.457357
2024-02-04T09:01:25.701Z,9.457443
2024-02-04T09:02:25.555Z,9.457380
2024-02-04T09:03:25.655Z,9.457227
2024-02-04T09:04:25.648Z,9.457278
2024-02-04T09:05:25.545Z,9.457275
2024-02-04T09:06:25.661Z,9.457301
2024-02-04T09:07:25.648Z,9.457239
2024-02-04T09:08:25.513Z,9.457128
2024-02-04T09:09:25.583Z,9.457355
2024-02-04T09:10:25.531Z,9.457350
2024-02-04T09:11:25.490Z,9.457171
2024-02-04T09:12:25.641Z,9.457114
2024-02-04T09:13:25.497Z,9.457363
2024-02-04T09:14:25.441Z,9.457180
2024-02-04T09:15:25.521Z,9.457353
2024-02-04T09:16:25.533Z,9.457305
2024-02-04T09:17:25.444Z,9.457292
2024-02-04T09:18:25.598Z,9.457456
2024-02-04T09:19:25.615Z,9.457498
2024-02-04T09:20:25.575Z,9.457351
2024-02-04T09:21:25.436Z,9.457294
2024-02-04T09:22:25.445Z,9.457344
2024-02-04T09:23:25.447Z,9.457298
2024-02-04T09:24:25.457Z,9.457390
2024-02-04T09:25:25.488Z,9.457247
2024-02-04T09:26:25.391Z,9.457271
2024-02-04T09:27:25.357Z,9.457310
2024-02-04T09:28:25.392Z,9.457180
2024-02-04T09:29:25.340Z,9.457229
2024-02-04T09:30:25.335Z,9.457165
2024-02-04T09:31:25.483Z,9.457138
2024-02-04T09:32:25.373Z,9.457203
2024-02-04T09:33:25.462Z,9.457262
2024-02-04T09:34:25.380Z,9.457272
2024-02-04T09:35:25.407Z,9.457253
2024-02-04T09:36:25.720Z,9.457237
2024-02-04T09:37:25.274Z,9.457278
2024-02-04T09:38:25.599Z,9.457280
2024-02-04T09:39:25.311Z,9.457253
2024-02-04T09:40:25.288Z,9.457322
2024-02-04T09:41:25.173Z,9.457371
2024-02-04T09:42:25.180Z,9.457400
2024-02-04T09:43:25.381Z,9.457384
2024-02-04T09:44:25.138Z,9.457142
2024-02-04T09:45:25.175Z,9.457122
2024-02-04T09:46:25.208Z,9.457079
2024-02-04T09:47:25.208Z,9.457376
2024-02-04T09:48:25.343Z,9.457355
2024-02-04T09:49:25.210Z,9.457371
2024-02-04T09:50:25.387Z,9.457331
2024-02-04T09:51:25.141Z,9.457411
2024-02-04T09:52:25.125Z,9.457327
2024-02-04T09:53:25.068Z,9.457214
2024-02-04T09:54:25.045Z,9.457163
2024-02-04T09:55:25.221Z,9.457201
2024-02-04T09:56:25.061Z,9.457260
2024-02-04T09:57:25.072Z,9.457211
2024-02-04T09:58:25.122Z,9.457164
2024-02-04T09:59:25.043Z,9.457100
2024-02-04T10:00:25.027Z,9.457126
2024-02-04T10:01:25.160Z,9.457240
2024-02-04T10:02:25.086Z,9.457208
2024-02-04T10:03:24.999Z,9.457249
2024-02-04T10:04:25.124Z,9.457469
2024-02-04T10:05:25.091Z,9.457343
2024-02-04T10:06:25.094Z,9.457355
2024-02-04T10:07:25.083Z,9.457292
2024-02-04T10:08:25.021Z,9.457304
2024-02-04T10:09:24.897Z,9.457220
2024-02-04T10:10:25.306Z,9.457355
2024-02-04T10:11:24.918Z,9.457241
2024-02-04T10:12:24.900Z,9.457196
2024-02-04T10:13:24.865Z,9.457148
2024-02-04T10:14:24.859Z,9.457230
2024-02-04T10:15:24.863Z,9.457332
2024-02-04T10:16:24.860Z,9.457293
2024-02-04T10:17:24.833Z,9.457222
2024-02-04T10:18:24.811Z,9.457164
2024-02-04T10:19:24.864Z,9.457271
2024-02-04T10:20:25.484Z,9.457068
2024-02-04T10:21:24.851Z,9.457086
2024-02-04T10:22:24.779Z,9.457080
2024-02-04T10:23:24.760Z,9.457327
2024-02-04T10:24:24.757Z,9.457376
2024-02-04T10:25:24.846Z,9.457305
2024-02-04T10:26:24.755Z,9.457370
2024-02-04T10:27:32.222Z,9.457165
2024-02-04T10:28:26.745Z,9.457159
2024-02-04T10:29:24.711Z,9.457257
2024-02-04T10:30:24.761Z,9.457230
2024-02-04T10:31:24.678Z,9.457341
2024-02-04T10:32:25.909Z,9.457520
2024-02-04T10:33:24.712Z,9.457378
2024-02-04T10:34:24.742Z,9.457327
2024-02-04T10:35:25.099Z,9.457269
2024-02-04T10:36:24.637Z,9.457315
2024-02-04T10:37:26.690Z,9.457383
2024-02-04T10:38:24.614Z,9.457293
2024-02-04T10:39:24.630Z,9.456921
2024-02-04T10:40:24.596Z,9.457034
2024-02-04T10:41:24.569Z,9.457221
2024-02-04T10:42:24.567Z,9.457162
2024-02-04T10:43:24.543Z,9.457282
2024-02-04T10:44:24.572Z,9.457281
2024-02-04T10:45:24.543Z,9.457271
2024-02-04T10:46:24.519Z,9.457340
2024-02-04T10:47:24.541Z,9.457214
2024-02-04T10:48:24.549Z,9.457177
2024-02-04T10:49:24.557Z,9.457225
2024-02-04T10:50:24.476Z,9.457315
2024-02-04T10:51:24.471Z,9.457242
2024-02-04T10:52:24.470Z,9.457272
2024-02-04T10:53:24.496Z,9.457161
2024-02-04T10:54:24.460Z,9.457210
2024-02-04T10:55:24.500Z,9.457348
2024-02-04T10:56:24.461Z,9.457234
2024-02-04T10:57:24.589Z,9.457269
2024-02-04T10:58:24.471Z,9.457333
2024-02-04T10:59:24.395Z,9.457331
2024-02-04T11:00:50.503Z,9.457258
2024-02-04T11:01:24.479Z,9.457254
2024-02-04T11:02:24.361Z,9.457253
2024-02-04T11:03:24.525Z,9.457220
2024-02-04T11:04:24.408Z,9.457379
2024-02-04T11:05:24.337Z,9.457212
2024-02-04T11:06:24.406Z,9.457131
2024-02-04T11:07:25.374Z,9.457313
2024-02-04T11:08:24.388Z,9.457268
2024-02-04T11:09:24.297Z,9.457408
2024-02-04T11:10:24.314Z,9.457215
2024-02-04T11:11:24.285Z,9.457313
2024-02-04T11:12:24.318Z,9.457293
2024-02-04T11:13:24.249Z,9.457217
2024-02-04T11:14:24.248Z,9.457252
2024-02-04T11:15:24.350Z,9.457304
2024-02-04T11:16:24.231Z,9.457194
2024-02-04T11:17:24.992Z,9.457226
2024-02-04T11:18:24.272Z,9.457183
2024-02-04T11:19:24.582Z,9.457220
2024-02-04T11:20:24.185Z,9.457311
2024-02-04T11:21:24.189Z,9.457240
2024-02-04T11:22:24.173Z,9.457277
2024-02-04T11:23:24.163Z,9.457154
2024-02-04T11:24:24.146Z,9.457099
2024-02-04T11:25:24.132Z,9.457136
2024-02-04T11:26:24.219Z,9.457216
2024-02-04T11:27:24.118Z,9.457112
2024-02-04T11:28:24.142Z,9.457202
2024-02-04T11:29:24.183Z,9.457221
2024-02-04T11:30:24.167Z,9.457182
2024-02-04T11:31:24.201Z,9.457161
2024-02-04T11:32:24.084Z,9.457205
2024-02-04T11:33:24.292Z,9.457191
2024-02-04T11:34:24.262Z,9.457293
2024-02-04T11:35:24.361Z,9.457203
2024-02-04T11:36:24.087Z,9.457279
2024-02-04T11:37:24.190Z,9.457288
2024-02-04T11:38:24.007Z,9.457192
2024-02-04T11:39:24.167Z,9.457186
2024-02-04T11:40:24.143Z,9.457225
2024-02-04T11:41:24.021Z,9.457254
2024-02-04T11:42:23.968Z,9.457280
2024-02-04T11:43:24.094Z,9.457182
2024-02-04T11:44:24.009Z,9.457130